createdAt,value
2019-04-07T00:02:01.822Z,7.24
2019-04-07T00:05:13.057Z,7.19
2019-04-07T00:08:14.513Z,7.27
2019-04-07T00:11:19.611Z,7.17
2019-04-07T00:14:24.826Z,7.14
2019-04-07T00:17:29.335Z,7.10
2019-04-07T00:20:33.838Z,7.12
2019-04-07T00:23:38.282Z,7.09
2019-04-07T00:26:43.026Z,7.08
2019-04-07T00:29:47.456Z,6.93
2019-04-07T00:32:52.023Z,6.96
2019-04-07T00:35:56.917Z,6.80
2019-04-07T00:39:01.597Z,6.78
2019-04-07T00:42:06.042Z,6.72
2019-04-07T00:45:11.525Z,6.63
2019-04-07T00:48:15.962Z,6.63
2019-04-07T00:51:20.696Z,6.64
2019-04-07T00:54:25.483Z,6.65
2019-04-07T00:57:30.321Z,6.75
2019-04-07T01:00:37.309Z,6.71
2019-04-07T01:03:42.305Z,6.67
2019-04-07T01:06:47.411Z,6.70
2019-04-07T01:09:51.800Z,6.68
2019-04-07T01:12:56.644Z,6.63
2019-04-07T01:16:01.381Z,6.50
2019-04-07T01:19:07.141Z,6.53
2019-04-07T01:22:11.831Z,6.49
2019-04-07T01:25:16.343Z,6.51
2019-04-07T01:28:21.028Z,6.43
2019-04-07T01:31:25.545Z,6.42
2019-04-07T01:34:30.416Z,6.47
2019-04-07T01:37:35.261Z,6.57
2019-04-07T01:40:40.152Z,6.57
2019-04-07T01:43:49.401Z,6.50
2019-04-07T01:46:55.962Z,6.46
2019-04-07T01:50:18.598Z,6.61
2019-04-07T01:53:27.978Z,6.67
2019-04-07T01:56:52.745Z,6.70
2019-04-07T02:00:13.866Z,6.69
2019-04-07T02:03:36.316Z,6.60
2019-04-07T02:06:42.391Z,6.52
2019-04-07T02:09:54.535Z,6.49
2019-04-07T02:13:01.117Z,6.41
2019-04-07T02:16:08.104Z,6.30
2019-04-07T02:19:12.658Z,6.37
2019-04-07T02:22:19.103Z,6.33
2019-04-07T02:25:25.232Z,6.32
2019-04-07T02:28:49.571Z,6.20
2019-04-07T02:31:55.937Z,6.13
2019-04-07T02:35:17.929Z,6.24
2019-04-07T02:38:27.449Z,6.28
2019-04-07T02:41:40.187Z,6.23
2019-04-07T02:44:52.569Z,6.15
2019-04-07T02:48:10.811Z,6.13
2019-04-07T02:51:32.174Z,6.03
2019-04-07T02:54:38.512Z,6.02
2019-04-07T02:57:47.820Z,6.05
2019-04-07T03:01:00.568Z,6.01
2019-04-07T03:04:22.955Z,6.04
2019-04-07T03:07:32.499Z,6.04
2019-04-07T03:10:38.796Z,5.93
2019-04-07T03:13:55.048Z,5.93
2019-04-07T03:17:17.128Z,5.99
2019-04-07T03:20:39.273Z,5.95
2019-04-07T03:23:48.656Z,5.97
2019-04-07T03:27:11.456Z,5.89
2019-04-07T03:30:22.419Z,5.92
2019-04-07T03:33:31.904Z,5.83
2019-04-07T03:37:15.156Z,5.77
2019-04-07T03:39:59.177Z,5.83
2019-04-07T03:43:09.469Z,5.85
2019-04-07T03:46:30.844Z,5.83
2019-04-07T03:49:36.923Z,5.86
2019-04-07T03:52:46.777Z,5.87
2019-04-07T03:56:02.064Z,5.73
2019-04-07T03:59:08.423Z,5.65
2019-04-07T04:02:14.794Z,5.51
2019-04-07T04:05:22.056Z,5.47
2019-04-07T04:08:45.666Z,5.56
2019-04-07T04:12:05.028Z,5.43
2019-04-07T04:15:15.073Z,5.49
2019-04-07T04:18:20.587Z,5.53
2019-04-07T04:21:25.949Z,5.41
2019-04-07T04:24:30.829Z,5.38
2019-04-07T04:27:35.433Z,5.34
2019-04-07T04:30:40.408Z,5.32
2019-04-07T04:33:44.811Z,5.33
2019-04-07T04:36:50.257Z,5.41
2019-04-07T04:39:55.777Z,5.63
2019-04-07T04:43:00.381Z,5.75
2019-04-07T04:46:08.638Z,5.72
2019-04-07T04:49:11.925Z,5.71
2019-04-07T04:52:17.586Z,5.75
2019-04-07T04:55:22.487Z,5.76
2019-04-07T04:58:27.081Z,5.71
2019-04-07T05:01:32.202Z,5.62
2019-04-07T05:04:37.358Z,5.64
2019-04-07T05:07:55.652Z,5.72
2019-04-07T05:10:48.331Z,5.76
2019-04-07T05:13:53.006Z,5.77
2019-04-07T05:16:57.489Z,5.80
2019-04-07T05:20:02.930Z,5.89
2019-04-07T05:23:07.834Z,5.93
2019-04-07T05:26:12.376Z,6.04
2019-04-07T05:29:17.133Z,6.07
2019-04-07T05:32:22.305Z,6.16
2019-04-07T05:35:27.504Z,6.26
2019-04-07T05:38:32.088Z,6.34
2019-04-07T05:41:37.208Z,6.32
2019-04-07T05:44:42.187Z,6.41
2019-04-07T05:47:48.682Z,6.58
2019-04-07T05:50:52.830Z,6.68
2019-04-07T05:53:57.264Z,6.74
2019-04-07T05:57:02.530Z,6.78
2019-04-07T06:00:15.656Z,6.91
2019-04-07T06:03:20.400Z,6.94
2019-04-07T06:06:25.861Z,6.94
2019-04-07T06:09:32.911Z,7.04
2019-04-07T06:12:39.335Z,7.20
2019-04-07T06:15:42.790Z,7.36
2019-04-07T06:18:47.746Z,7.49
2019-04-07T06:21:52.698Z,7.53
2019-04-07T06:25:00.716Z,7.75
2019-04-07T06:28:03.409Z,7.95
2019-04-07T06:31:09.278Z,8.10
2019-04-07T06:34:13.786Z,8.22
2019-04-07T06:37:18.739Z,8.38
2019-04-07T06:40:23.189Z,8.58
2019-04-07T06:43:27.622Z,8.72
2019-04-07T06:46:34.025Z,8.84
2019-04-07T06:49:47.446Z,8.86
2019-04-07T06:52:59.746Z,9.07
2019-04-07T06:56:06.392Z,9.24
2019-04-07T06:59:15.566Z,9.46
2019-04-07T07:02:29.065Z,10.60
2019-04-07T07:05:35.388Z,12.05
2019-04-07T07:08:53.034Z,12.94
2019-04-07T07:12:02.340Z,12.69
2019-04-07T07:15:21.725Z,12.75
2019-04-07T07:18:44.706Z,12.57
2019-04-07T07:22:12.714Z,12.59
2019-04-07T07:25:13.475Z,12.81
2019-04-07T07:28:18.247Z,12.89
2019-04-07T07:31:25.440Z,13.00
2019-04-07T07:34:29.464Z,13.13
2019-04-07T07:37:34.270Z,13.25
2019-04-07T07:40:38.715Z,13.20
2019-04-07T07:43:43.587Z,13.35
2019-04-07T07:46:50.415Z,13.44
2019-04-07T07:49:55.100Z,13.41
2019-04-07T07:52:59.706Z,13.30
2019-04-07T07:56:08.490Z,13.07
2019-04-07T07:59:11.078Z,12.89
2019-04-07T08:02:18.605Z,12.89
2019-04-07T08:05:22.751Z,12.80
2019-04-07T08:08:27.700Z,12.94
2019-04-07T08:11:33.835Z,12.79
2019-04-07T08:14:38.614Z,12.92
2019-04-07T08:17:43.347Z,13.20
2019-04-07T08:20:48.358Z,13.50
2019-04-07T08:23:53.561Z,13.96
2019-04-07T08:26:59.090Z,14.31
2019-04-07T08:30:11.187Z,14.42
2019-04-07T08:33:13.551Z,14.59
2019-04-07T08:36:18.304Z,14.84
2019-04-07T08:39:26.732Z,15.01
2019-04-07T08:42:28.904Z,15.19
2019-04-07T08:45:33.812Z,15.41
2019-04-07T08:48:38.812Z,15.36
2019-04-07T08:51:43.848Z,15.49
2019-04-07T08:54:51.415Z,15.38
2019-04-07T08:57:55.038Z,15.33
2019-04-07T09:00:59.615Z,15.53
2019-04-07T09:04:04.568Z,15.73
2019-04-07T09:07:09.072Z,15.62
2019-04-07T09:10:18.316Z,15.74
2019-04-07T09:13:22.482Z,15.92
2019-04-07T09:16:39.372Z,15.84
2019-04-07T09:19:46.933Z,15.52
2019-04-07T09:22:57.250Z,15.16
2019-04-07T09:26:04.184Z,14.82
2019-04-07T09:29:13.208Z,14.79
2019-04-07T09:32:22.562Z,14.76
2019-04-07T09:35:34.616Z,14.77
2019-04-07T09:38:42.120Z,14.84
2019-04-07T09:41:48.635Z,14.79
2019-04-07T09:45:02.111Z,14.94
2019-04-07T09:48:08.820Z,14.92
2019-04-07T09:51:26.909Z,15.00
2019-04-07T09:54:34.179Z,15.13
2019-04-07T09:57:57.035Z,15.27
2019-04-07T10:01:06.105Z,15.64
2019-04-07T10:04:20.523Z,15.84
2019-04-07T10:07:30.696Z,15.66
2019-04-07T10:10:45.765Z,15.47
2019-04-07T10:14:01.184Z,15.54
2019-04-07T10:17:07.648Z,15.78
2019-04-07T10:20:22.101Z,16.08
2019-04-07T10:23:43.792Z,16.22
2019-04-07T10:27:01.940Z,16.64
2019-04-07T10:30:09.974Z,17.04
2019-04-07T10:33:24.936Z,17.34
2019-04-07T10:36:49.405Z,17.42
2019-04-07T10:39:58.145Z,17.74
2019-04-07T10:43:09.645Z,18.07
2019-04-07T10:46:16.795Z,18.10
2019-04-07T10:49:38.245Z,18.25
2019-04-07T10:52:56.583Z,18.29
2019-04-07T10:56:02.740Z,18.50
2019-04-07T10:59:14.631Z,18.65
2019-04-07T11:02:23.824Z,18.64
2019-04-07T11:05:28.055Z,18.92
2019-04-07T11:08:36.582Z,18.82
2019-04-07T11:11:56.670Z,18.31
2019-04-07T11:15:12.508Z,18.67
2019-04-07T11:18:19.133Z,18.55
2019-04-07T11:21:23.798Z,19.15
2019-04-07T11:24:41.707Z,18.97
2019-04-07T11:27:50.555Z,19.03
2019-04-07T11:31:05.790Z,19.09
2019-04-07T11:34:23.937Z,19.09
2019-04-07T11:37:38.974Z,19.00
2019-04-07T11:40:49.984Z,18.69
2019-04-07T11:43:54.598Z,18.76
2019-04-07T11:47:05.033Z,18.80
2019-04-07T11:50:15.113Z,18.55
2019-04-07T11:53:21.360Z,18.57
2019-04-07T11:56:34.012Z,18.42
2019-04-07T11:59:43.697Z,18.32
2019-04-07T12:03:07.108Z,18.30
2019-04-07T12:06:25.528Z,18.43
2019-04-07T12:09:30.508Z,18.58
2019-04-07T12:12:42.487Z,18.59
2019-04-07T12:15:58.054Z,18.49
2019-04-07T12:19:04.471Z,18.68
2019-04-07T12:22:19.619Z,18.78
2019-04-07T12:25:38.449Z,18.77
2019-04-07T12:28:47.607Z,18.93
2019-04-07T12:31:56.560Z,19.12
2019-04-07T12:35:06.342Z,19.36
2019-04-07T12:38:13.482Z,19.57
2019-04-07T12:41:22.105Z,19.70
2019-04-07T12:44:34.137Z,19.62
2019-04-07T12:47:52.830Z,19.93
2019-04-07T12:51:08.429Z,20.26
2019-04-07T12:54:12.769Z,19.68
2019-04-07T12:57:38.339Z,19.45
2019-04-07T13:01:09.573Z,19.27
2019-04-07T13:04:24.382Z,19.30
2019-04-07T13:07:34.975Z,19.23
2019-04-07T13:10:48.040Z,19.11
2019-04-07T13:14:05.143Z,18.84
2019-04-07T13:17:11.596Z,18.68
2019-04-07T13:20:18.996Z,18.53
2019-04-07T13:23:26.549Z,18.42
2019-04-07T13:26:38.960Z,18.16
2019-04-07T13:29:45.524Z,17.73
2019-04-07T13:32:56.686Z,17.47
2019-04-07T13:36:02.189Z,16.95
2019-04-07T13:39:17.991Z,16.83
2019-04-07T13:42:42.827Z,16.70
2019-04-07T13:45:50.642Z,16.80
2019-04-07T13:49:00.395Z,16.86
2019-04-07T13:52:09.667Z,16.92
2019-04-07T13:55:32.309Z,16.93
2019-04-07T13:58:51.982Z,16.99
2019-04-07T14:02:01.254Z,17.02
2019-04-07T14:05:12.895Z,17.06
2019-04-07T14:08:17.019Z,17.01
2019-04-07T14:11:21.939Z,17.01
2019-04-07T14:14:30.532Z,16.99
2019-04-07T14:17:50.366Z,16.95
2019-04-07T14:21:09.417Z,16.96
2019-04-07T14:24:25.157Z,16.82
2019-04-07T14:27:40.510Z,16.81
2019-04-07T14:30:48.629Z,16.74
2019-04-07T14:33:57.626Z,16.68
2019-04-07T14:37:12.951Z,16.64
2019-04-07T14:40:19.109Z,16.60
2019-04-07T14:43:25.827Z,16.71
2019-04-07T14:46:32.638Z,16.70
2019-04-07T14:49:39.960Z,16.53
2019-04-07T14:52:54.842Z,16.51
2019-04-07T14:56:12.951Z,16.38
2019-04-07T14:59:30.696Z,16.24
2019-04-07T15:02:35.437Z,16.25
2019-04-07T15:05:48.372Z,16.21
2019-04-07T15:08:55.269Z,16.16
2019-04-07T15:12:13.606Z,16.20
2019-04-07T15:15:11.665Z,16.08
2019-04-07T15:18:15.054Z,16.09
2019-04-07T15:21:20.001Z,15.98
2019-04-07T15:24:24.728Z,16.12
2019-04-07T15:27:29.459Z,16.08
2019-04-07T15:30:33.902Z,15.99
2019-04-07T15:33:38.435Z,15.94
2019-04-07T15:36:43.940Z,15.92
2019-04-07T15:39:49.466Z,16.01
2019-04-07T15:42:54.250Z,15.98
2019-04-07T15:45:58.699Z,15.94
2019-04-07T15:49:03.790Z,15.93
2019-04-07T15:52:09.956Z,15.94
2019-04-07T15:55:15.015Z,16.03
2019-04-07T15:58:20.496Z,16.02
2019-04-07T16:01:25.074Z,16.05
2019-04-07T16:04:30.461Z,16.07
2019-04-07T16:07:35.281Z,15.97
2019-04-07T16:10:40.274Z,15.84
2019-04-07T16:13:46.211Z,15.78
2019-04-07T16:16:51.698Z,15.73
2019-04-07T16:19:56.842Z,15.64
2019-04-07T16:23:01.581Z,15.60
2019-04-07T16:26:06.645Z,15.58
2019-04-07T16:29:11.565Z,15.55
2019-04-07T16:32:15.966Z,15.57
2019-04-07T16:35:20.717Z,15.64
2019-04-07T16:38:25.430Z,15.66
2019-04-07T16:41:29.882Z,15.64
2019-04-07T16:44:37.993Z,15.68
2019-04-07T16:47:40.864Z,15.73
2019-04-07T16:50:46.269Z,15.64
2019-04-07T16:53:52.083Z,15.57
2019-04-07T16:56:58.140Z,15.54
2019-04-07T17:00:03.677Z,15.49
2019-04-07T17:03:09.958Z,15.43
2019-04-07T17:06:14.715Z,15.41
2019-04-07T17:09:24.723Z,15.44
2019-04-07T17:12:27.741Z,15.41
2019-04-07T17:15:38.188Z,15.42
2019-04-07T17:18:42.930Z,15.27
2019-04-07T17:21:47.965Z,15.15
2019-04-07T17:24:52.393Z,15.12
2019-04-07T17:28:02.225Z,14.99
2019-04-07T17:31:03.615Z,14.98
2019-04-07T17:34:10.860Z,15.00
2019-04-07T17:37:15.070Z,15.01
2019-04-07T17:40:22.592Z,14.97
2019-04-07T17:43:49.413Z,14.98
2019-04-07T17:47:06.565Z,14.88
2019-04-07T17:50:31.408Z,14.81
2019-04-07T17:53:40.132Z,14.87
2019-04-07T17:57:01.191Z,14.88
2019-04-07T18:00:18.548Z,14.95
2019-04-07T18:03:43.961Z,14.82
2019-04-07T18:06:51.320Z,14.85
2019-04-07T18:10:13.597Z,14.87
2019-04-07T18:13:39.791Z,14.91
2019-04-07T18:16:52.760Z,14.86
2019-04-07T18:20:15.824Z,14.85
2019-04-07T18:23:24.038Z,14.72
2019-04-07T18:26:46.781Z,14.71
2019-04-07T18:30:05.510Z,14.76
2019-04-07T18:33:17.583Z,14.73
2019-04-07T18:36:35.973Z,14.71
2019-04-07T18:40:01.883Z,14.73
2019-04-07T18:43:12.205Z,14.67
2019-04-07T18:46:23.694Z,14.55
2019-04-07T18:49:46.517Z,14.56
2019-04-07T18:53:04.468Z,14.52
2019-04-07T18:56:27.105Z,14.52
2019-04-07T18:59:57.834Z,14.57
2019-04-07T19:02:57.839Z,14.55
2019-04-07T19:06:08.260Z,14.46
2019-04-07T19:09:23.916Z,14.32
2019-04-07T19:12:49.047Z,14.23
2019-04-07T19:16:13.511Z,14.16
2019-04-07T19:19:34.115Z,14.07
2019-04-07T19:22:40.200Z,14.12
2019-04-07T19:25:53.749Z,13.98
2019-04-07T19:29:08.401Z,13.94
2019-04-07T19:32:31.340Z,13.94
2019-04-07T19:35:46.266Z,13.90
2019-04-07T19:38:52.672Z,13.93
2019-04-07T19:42:11.205Z,13.87
2019-04-07T19:48:50.280Z,13.89
2019-04-07T19:52:12.784Z,13.73
2019-04-07T19:55:24.938Z,13.68
2019-04-07T19:58:38.119Z,13.75
2019-04-07T20:01:46.027Z,13.72
2019-04-07T20:05:02.474Z,13.74
2019-04-07T20:08:08.560Z,13.86
2019-04-07T20:11:13.826Z,13.87
2019-04-07T20:14:26.274Z,13.82
2019-04-07T20:17:45.259Z,13.84
2019-04-07T20:21:01.130Z,13.79
2019-04-07T20:24:07.032Z,13.76
2019-04-07T20:27:29.771Z,13.68
2019-04-07T20:30:51.302Z,13.66
2019-04-07T20:34:12.612Z,13.65
2019-04-07T20:37:18.703Z,13.41
2019-04-07T20:40:25.809Z,13.43
2019-04-07T20:43:38.412Z,13.30
2019-04-07T20:46:44.866Z,13.14
2019-04-07T20:49:56.869Z,13.19
2019-04-07T20:53:12.474Z,13.23
2019-04-07T20:56:13.023Z,13.20
2019-04-07T20:59:27.064Z,13.12
2019-04-07T21:02:35.016Z,13.13
2019-04-07T21:05:58.161Z,13.02
2019-04-07T21:09:10.272Z,12.98
2019-04-07T21:12:25.333Z,12.97
2019-04-07T21:15:41.154Z,12.99
2019-04-07T21:18:45.544Z,13.03
2019-04-07T21:22:01.263Z,13.07
2019-04-07T21:25:11.927Z,12.94
2019-04-07T21:28:24.613Z,12.84
2019-04-07T21:31:28.937Z,12.83
2019-04-07T21:34:36.473Z,12.89
2019-04-07T21:37:58.893Z,12.88
2019-04-07T21:41:13.363Z,12.85
2019-04-07T21:44:28.347Z,12.72
2019-04-07T21:47:37.467Z,12.67
2019-04-07T21:50:43.451Z,12.56
2019-04-07T21:53:55.104Z,12.55
2019-04-07T21:57:02.325Z,12.60
2019-04-07T22:00:10.649Z,12.58
2019-04-07T22:03:23.610Z,12.41
2019-04-07T22:06:31.124Z,12.54
2019-04-07T22:09:51.868Z,12.55
2019-04-07T22:13:00.241Z,12.52
2019-04-07T22:16:04.217Z,12.38
2019-04-07T22:19:11.061Z,12.42
2019-04-07T22:22:14.943Z,12.51
2019-04-07T22:25:26.513Z,12.53
2019-04-07T22:28:31.735Z,12.40
2019-04-07T22:31:43.920Z,12.40
2019-04-07T22:34:47.045Z,12.46
2019-04-07T22:37:51.757Z,12.50
2019-04-07T22:40:57.078Z,12.48
2019-04-07T22:44:01.530Z,12.40
2019-04-07T22:47:07.013Z,12.42
2019-04-07T22:50:12.816Z,12.48
2019-04-07T22:53:21.297Z,12.40
2019-04-07T22:56:24.356Z,12.32
2019-04-07T22:59:28.927Z,12.39
2019-04-07T23:02:33.691Z,12.54
2019-04-07T23:05:38.123Z,12.40
2019-04-07T23:08:43.257Z,12.18
2019-04-07T23:11:48.235Z,12.26
2019-04-07T23:14:53.164Z,12.36
2019-04-07T23:17:57.965Z,12.33
2019-04-07T23:21:03.115Z,12.29
2019-04-07T23:24:07.766Z,12.22
2019-04-07T23:27:12.472Z,12.38
2019-04-07T23:30:23.609Z,12.42
2019-04-07T23:33:28.108Z,12.23
2019-04-07T23:36:32.549Z,12.36
2019-04-07T23:39:37.715Z,12.10
2019-04-07T23:42:42.241Z,12.25
2019-04-07T23:45:47.521Z,12.13
2019-04-07T23:48:52.430Z,12.15
2019-04-07T23:51:57.164Z,12.19
2019-04-07T23:55:02.450Z,12.26
2019-04-07T23:58:06.946Z,12.30
